createdAt,value
2023-05-27T00:00:52.940Z,17.06
2023-05-27T00:01:56.036Z,16.99
2023-05-27T00:03:05.245Z,16.97
2023-05-27T00:04:08.621Z,16.99
2023-05-27T00:05:11.936Z,17.00
2023-05-27T00:06:14.962Z,16.95
2023-05-27T00:07:17.871Z,16.92
2023-05-27T00:08:20.937Z,16.90
2023-05-27T00:09:23.930Z,16.89
2023-05-27T00:10:26.799Z,16.85
2023-05-27T00:11:29.652Z,16.95
2023-05-27T00:12:32.557Z,16.88
2023-05-27T00:13:35.959Z,16.86
2023-05-27T00:14:38.864Z,16.82
2023-05-27T00:15:42.697Z,16.96
2023-05-27T00:16:45.732Z,16.99
2023-05-27T00:17:48.927Z,16.96
2023-05-27T00:18:52.088Z,17.05
2023-05-27T00:19:55.490Z,16.98
2023-05-27T00:20:59.082Z,17.02
2023-05-27T00:22:02.119Z,17.06
2023-05-27T00:23:04.977Z,17.02
2023-05-27T00:24:08.124Z,16.96
2023-05-27T00:25:12.210Z,16.94
2023-05-27T00:26:15.371Z,16.93
2023-05-27T00:27:18.273Z,16.97
2023-05-27T00:28:21.209Z,16.92
2023-05-27T00:29:26.240Z,16.88
2023-05-27T00:30:29.079Z,16.90
2023-05-27T00:31:32.003Z,16.90
2023-05-27T00:32:35.027Z,16.88
2023-05-27T00:33:38.053Z,16.83
2023-05-27T00:34:41.078Z,16.81
2023-05-27T00:35:43.964Z,16.77
2023-05-27T00:36:47.041Z,16.89
2023-05-27T00:37:50.017Z,16.82
2023-05-27T00:38:52.894Z,16.78
2023-05-27T00:39:55.810Z,16.81
2023-05-27T00:41:02.943Z,16.87
2023-05-27T00:42:06.129Z,16.83
2023-05-27T00:43:09.180Z,16.78
2023-05-27T00:44:12.015Z,16.76
2023-05-27T00:45:15.002Z,16.82
2023-05-27T00:46:18.087Z,16.80
2023-05-27T00:47:21.219Z,16.77
2023-05-27T00:48:24.251Z,16.79
2023-05-27T00:49:27.907Z,16.89
2023-05-27T00:50:31.663Z,16.88
2023-05-27T00:51:34.842Z,16.79
2023-05-27T00:52:37.979Z,16.71
2023-05-27T00:53:45.911Z,16.69
2023-05-27T00:54:49.266Z,16.75
2023-05-27T00:55:55.020Z,16.85
2023-05-27T00:56:58.175Z,16.83
2023-05-27T00:58:01.204Z,16.78
2023-05-27T00:59:04.713Z,16.76
2023-05-27T01:00:11.475Z,16.81
2023-05-27T01:01:14.877Z,16.78
2023-05-27T01:02:18.148Z,16.79
2023-05-27T01:03:21.956Z,16.81
2023-05-27T01:04:26.853Z,16.76
2023-05-27T01:05:30.511Z,16.78
2023-05-27T01:07:14.477Z,16.85
2023-05-27T01:08:25.988Z,16.84
2023-05-27T01:09:49.946Z,16.82
2023-05-27T01:10:55.514Z,16.82
2023-05-27T01:12:20.091Z,16.86
2023-05-27T01:13:29.005Z,16.82
2023-05-27T01:14:35.112Z,16.76
2023-05-27T01:15:38.521Z,16.72
2023-05-27T01:16:45.325Z,16.82
2023-05-27T01:17:49.185Z,16.88
2023-05-27T01:18:55.249Z,16.85
2023-05-27T01:20:00.587Z,16.86
2023-05-27T01:21:14.251Z,16.90
2023-05-27T01:22:20.472Z,16.82
2023-05-27T01:23:23.467Z,16.75
2023-05-27T01:24:26.386Z,16.86
2023-05-27T01:25:29.923Z,16.83
2023-05-27T01:26:33.029Z,16.74
2023-05-27T01:27:35.940Z,16.72
2023-05-27T01:28:39.078Z,16.73
2023-05-27T01:29:43.135Z,16.75
2023-05-27T01:30:45.989Z,16.74
2023-05-27T01:31:53.831Z,16.73
2023-05-27T01:33:03.998Z,16.68
2023-05-27T01:34:11.027Z,16.77
2023-05-27T01:35:23.496Z,16.91
2023-05-27T01:36:30.178Z,16.79
2023-05-27T01:37:37.429Z,16.76
2023-05-27T01:38:43.766Z,16.70
2023-05-27T01:39:50.306Z,16.87
2023-05-27T01:40:55.206Z,16.75
2023-05-27T01:42:02.008Z,16.80
2023-05-27T01:43:06.599Z,16.74
2023-05-27T01:44:11.381Z,16.66
2023-05-27T01:45:14.249Z,16.64
2023-05-27T01:46:17.469Z,16.64
2023-05-27T01:47:20.664Z,16.65
2023-05-27T01:48:23.659Z,16.72
2023-05-27T01:49:26.579Z,16.76
2023-05-27T01:50:31.786Z,16.72
2023-05-27T01:51:34.789Z,16.72
2023-05-27T01:52:37.764Z,16.66
2023-05-27T01:53:40.878Z,16.53
2023-05-27T01:54:43.787Z,16.45
2023-05-27T01:55:47.267Z,16.50
2023-05-27T01:56:50.324Z,16.56
2023-05-27T01:57:54.541Z,16.55
2023-05-27T01:58:57.508Z,16.56
2023-05-27T02:00:00.434Z,16.52
2023-05-27T02:01:03.469Z,16.50
2023-05-27T02:02:06.890Z,16.46
2023-05-27T02:03:10.062Z,16.60
2023-05-27T02:04:13.086Z,16.52
2023-05-27T02:05:16.292Z,16.45
2023-05-27T02:06:19.296Z,16.40
2023-05-27T02:07:22.437Z,16.50
2023-05-27T02:08:25.431Z,16.43
2023-05-27T02:09:28.370Z,16.36
2023-05-27T02:10:31.429Z,16.38
2023-05-27T02:11:34.271Z,16.40
2023-05-27T02:12:37.225Z,16.47
2023-05-27T02:13:40.147Z,16.43
2023-05-27T02:14:43.061Z,16.38
2023-05-27T02:15:46.343Z,16.36
2023-05-27T02:16:50.928Z,16.38
2023-05-27T02:17:56.850Z,16.38
2023-05-27T02:18:59.730Z,16.47
2023-05-27T02:20:02.819Z,16.57
2023-05-27T02:21:06.857Z,16.48
2023-05-27T02:22:10.009Z,16.47
2023-05-27T02:23:12.895Z,16.47
2023-05-27T02:24:15.937Z,16.50
2023-05-27T02:25:18.939Z,16.47
2023-05-27T02:26:23.319Z,16.55
2023-05-27T02:27:26.318Z,16.60
2023-05-27T02:28:29.303Z,16.55
2023-05-27T02:29:32.350Z,16.49
2023-05-27T02:30:35.264Z,16.53
2023-05-27T02:31:38.249Z,16.62
2023-05-27T02:32:41.758Z,16.61
2023-05-27T02:33:44.674Z,16.58
2023-05-27T02:34:47.583Z,16.60
2023-05-27T02:35:50.935Z,16.67
2023-05-27T02:36:54.141Z,16.65
2023-05-27T02:37:57.203Z,16.68
2023-05-27T02:39:00.176Z,16.60
2023-05-27T02:40:04.202Z,16.59
2023-05-27T02:41:07.111Z,16.61
2023-05-27T02:42:10.052Z,16.57
2023-05-27T02:43:12.946Z,16.68
2023-05-27T02:44:15.912Z,16.66
2023-05-27T02:45:18.625Z,16.61
2023-05-27T02:46:21.718Z,16.64
2023-05-27T02:47:24.735Z,16.67
2023-05-27T02:48:27.492Z,16.58
2023-05-27T02:49:30.453Z,16.55
2023-05-27T02:50:33.263Z,16.46
2023-05-27T02:51:36.472Z,16.47
2023-05-27T02:52:39.255Z,16.41
2023-05-27T02:53:42.109Z,16.38
2023-05-27T02:54:44.991Z,16.39
2023-05-27T02:55:48.072Z,16.40
2023-05-27T02:56:51.516Z,16.46
2023-05-27T02:57:54.502Z,16.45
2023-05-27T02:58:57.210Z,16.44
2023-05-27T03:00:00.246Z,16.50
2023-05-27T03:01:03.095Z,16.48
2023-05-27T03:02:06.509Z,16.50
2023-05-27T03:03:09.617Z,16.54
2023-05-27T03:04:12.978Z,16.48
2023-05-27T03:05:15.878Z,16.43
2023-05-27T03:06:18.792Z,16.45
2023-05-27T03:07:21.576Z,16.41
2023-05-27T03:08:24.437Z,16.38
2023-05-27T03:09:27.269Z,16.40
2023-05-27T03:10:31.629Z,16.33
2023-05-27T03:11:34.796Z,16.30
2023-05-27T03:12:37.712Z,16.34
2023-05-27T03:13:40.690Z,16.32
2023-05-27T03:14:43.568Z,16.37
2023-05-27T03:15:46.444Z,16.39
2023-05-27T03:16:49.488Z,16.40
2023-05-27T03:17:53.321Z,16.37
2023-05-27T03:18:56.249Z,16.31
2023-05-27T03:19:59.263Z,16.35
2023-05-27T03:21:02.747Z,16.36
2023-05-27T03:22:06.192Z,16.36
2023-05-27T03:23:09.100Z,16.36
2023-05-27T03:24:12.287Z,16.33
2023-05-27T03:25:15.836Z,16.33
2023-05-27T03:26:18.766Z,16.38
2023-05-27T03:27:21.923Z,16.44
2023-05-27T03:28:24.719Z,16.51
2023-05-27T03:29:27.663Z,16.49
2023-05-27T03:30:30.374Z,16.45
2023-05-27T03:31:33.397Z,16.44
2023-05-27T03:32:36.394Z,16.46
2023-05-27T03:33:39.554Z,16.53
2023-05-27T03:34:42.421Z,16.59
2023-05-27T03:35:45.242Z,16.56
2023-05-27T03:36:48.808Z,16.53
2023-05-27T03:37:51.758Z,16.57
2023-05-27T03:38:54.696Z,16.57
2023-05-27T03:39:58.540Z,16.58
2023-05-27T03:41:01.372Z,16.59
2023-05-27T03:42:04.352Z,16.62
2023-05-27T03:43:07.175Z,16.63
2023-05-27T03:44:10.415Z,16.65
2023-05-27T03:45:13.207Z,16.59
2023-05-27T03:46:16.162Z,16.48
2023-05-27T03:47:21.935Z,16.52
2023-05-27T03:48:24.956Z,16.46
2023-05-27T03:49:27.796Z,16.50
2023-05-27T03:50:30.721Z,16.49
2023-05-27T03:51:33.533Z,16.49
2023-05-27T03:52:36.337Z,16.50
2023-05-27T03:53:39.275Z,16.51
2023-05-27T03:54:43.054Z,16.57
2023-05-27T03:55:46.084Z,16.60
2023-05-27T03:56:49.380Z,16.60
2023-05-27T03:57:52.260Z,16.69
2023-05-27T03:58:55.223Z,16.58
2023-05-27T03:59:58.124Z,16.72
2023-05-27T04:01:00.843Z,16.71
2023-05-27T04:02:03.920Z,16.73
2023-05-27T04:03:07.149Z,16.80
2023-05-27T04:04:10.275Z,16.95
2023-05-27T04:05:13.215Z,16.92
2023-05-27T04:06:16.664Z,16.87
2023-05-27T04:07:20.367Z,16.78
2023-05-27T04:08:23.717Z,16.79
2023-05-27T04:09:26.764Z,16.87
2023-05-27T04:10:29.561Z,16.81
2023-05-27T04:11:32.642Z,16.82
2023-05-27T04:12:35.486Z,16.87
2023-05-27T04:13:38.304Z,16.87
2023-05-27T04:14:41.156Z,16.84
2023-05-27T04:15:44.066Z,16.87
2023-05-27T04:16:47.139Z,16.93
2023-05-27T04:17:50.190Z,16.87
2023-05-27T04:18:53.774Z,16.89
2023-05-27T04:19:57.912Z,16.87
2023-05-27T04:21:01.279Z,16.93
2023-05-27T04:22:04.288Z,16.92
2023-05-27T04:23:11.480Z,16.83
2023-05-27T04:24:14.442Z,16.94
2023-05-27T04:25:17.310Z,16.77
2023-05-27T04:26:21.255Z,16.76
2023-05-27T04:27:26.229Z,16.72
2023-05-27T04:28:29.245Z,16.87
2023-05-27T04:29:33.176Z,16.78
2023-05-27T04:30:36.230Z,16.72
2023-05-27T04:31:39.804Z,16.75
2023-05-27T04:32:42.525Z,16.73
2023-05-27T04:33:45.910Z,16.77
2023-05-27T04:34:50.430Z,16.69
2023-05-27T04:35:54.881Z,16.65
2023-05-27T04:36:57.721Z,16.67
2023-05-27T04:38:02.681Z,16.78
2023-05-27T04:39:05.773Z,16.83
2023-05-27T04:40:10.102Z,16.94
2023-05-27T04:41:13.386Z,16.93
2023-05-27T04:42:16.837Z,16.94
2023-05-27T04:43:20.659Z,16.99
2023-05-27T04:44:23.597Z,17.00
2023-05-27T04:45:28.246Z,17.03
2023-05-27T04:46:31.620Z,16.98
2023-05-27T04:47:39.470Z,16.95
2023-05-27T04:48:46.327Z,17.04
2023-05-27T04:49:49.168Z,17.08
2023-05-27T04:50:54.453Z,17.16
2023-05-27T04:51:57.265Z,17.21
2023-05-27T04:53:01.889Z,17.19
2023-05-27T04:54:07.179Z,17.34
2023-05-27T04:55:12.251Z,17.33
2023-05-27T04:56:18.550Z,17.40
2023-05-27T04:57:22.159Z,17.44
2023-05-27T04:58:25.337Z,17.49
2023-05-27T04:59:47.242Z,17.55
2023-05-27T05:00:54.965Z,17.63
2023-05-27T05:02:11.539Z,17.60
2023-05-27T05:03:22.069Z,17.70
2023-05-27T05:04:25.168Z,17.76
2023-05-27T05:05:28.292Z,17.80
2023-05-27T05:06:31.131Z,18.02
2023-05-27T05:07:34.777Z,17.92
2023-05-27T05:08:37.831Z,18.03
2023-05-27T05:09:40.694Z,18.02
2023-05-27T05:10:43.657Z,18.04
2023-05-27T05:11:46.471Z,18.02
2023-05-27T05:12:49.836Z,18.10
2023-05-27T05:13:52.615Z,18.28
2023-05-27T05:14:55.530Z,18.29
2023-05-27T05:15:58.338Z,18.18
2023-05-27T05:17:01.331Z,18.28
2023-05-27T05:18:04.368Z,18.29
2023-05-27T05:19:07.185Z,18.31
2023-05-27T05:20:11.432Z,18.37
2023-05-27T05:21:14.433Z,18.38
2023-05-27T05:22:19.887Z,18.28
2023-05-27T05:23:22.720Z,18.27
2023-05-27T05:24:25.618Z,18.33
2023-05-27T05:25:28.473Z,18.30
2023-05-27T05:26:31.357Z,18.37
2023-05-27T05:27:34.930Z,18.41
2023-05-27T05:28:37.790Z,18.39
2023-05-27T05:29:40.654Z,18.43
2023-05-27T05:30:43.502Z,18.41
2023-05-27T05:31:46.670Z,18.27
2023-05-27T05:32:49.646Z,18.18
2023-05-27T05:33:52.675Z,18.32
2023-05-27T05:34:57.102Z,18.50
2023-05-27T05:35:59.881Z,18.49
2023-05-27T05:37:02.763Z,18.33
2023-05-27T05:38:06.071Z,18.36
2023-05-27T05:39:09.322Z,18.57
2023-05-27T05:40:12.566Z,18.60
2023-05-27T05:41:15.572Z,18.65
2023-05-27T05:42:18.754Z,18.65
2023-05-27T05:43:21.894Z,18.71
2023-05-27T05:44:25.455Z,18.48
2023-05-27T05:45:28.318Z,18.59
2023-05-27T05:46:31.224Z,18.62
2023-05-27T05:47:34.429Z,18.71
2023-05-27T05:48:37.596Z,18.84
2023-05-27T05:49:40.601Z,18.92
2023-05-27T05:50:44.024Z,19.01
2023-05-27T05:51:47.822Z,19.08
2023-05-27T05:52:51.078Z,19.24
2023-05-27T05:53:54.284Z,19.36
2023-05-27T05:54:57.085Z,19.38
2023-05-27T05:55:59.805Z,19.51
2023-05-27T05:57:03.838Z,19.58
2023-05-27T05:58:06.682Z,19.45
2023-05-27T05:59:09.727Z,19.59
2023-05-27T06:00:13.372Z,19.62
2023-05-27T06:01:17.366Z,19.63
2023-05-27T06:02:20.478Z,19.62
2023-05-27T06:03:23.473Z,19.66
2023-05-27T06:04:26.349Z,19.43
2023-05-27T06:05:29.319Z,19.36
2023-05-27T06:06:32.305Z,19.37
2023-05-27T06:07:35.185Z,19.41
2023-05-27T06:08:38.175Z,19.37
2023-05-27T06:09:41.142Z,19.31
2023-05-27T06:10:44.051Z,19.42
2023-05-27T06:11:46.904Z,19.26
2023-05-27T06:12:49.700Z,19.18
2023-05-27T06:13:52.767Z,19.20
2023-05-27T06:14:55.519Z,19.19
2023-05-27T06:15:58.412Z,19.25
2023-05-27T06:17:01.599Z,19.36
2023-05-27T06:18:05.438Z,19.48
2023-05-27T06:19:08.527Z,19.59
2023-05-27T06:20:12.014Z,19.65
2023-05-27T06:21:14.863Z,19.83
2023-05-27T06:22:18.061Z,19.86
2023-05-27T06:23:20.918Z,19.95
2023-05-27T06:24:23.911Z,19.97
2023-05-27T06:25:26.877Z,20.06
2023-05-27T06:26:29.792Z,19.96
2023-05-27T06:27:32.774Z,20.27
2023-05-27T06:28:35.717Z,20.21
2023-05-27T06:29:38.709Z,20.08
2023-05-27T06:30:41.591Z,20.05
2023-05-27T06:31:44.613Z,19.97
2023-05-27T06:32:47.691Z,19.81
2023-05-27T06:33:50.798Z,19.95
2023-05-27T06:34:53.772Z,19.88
2023-05-27T06:35:56.690Z,19.96
2023-05-27T06:36:59.522Z,19.80
2023-05-27T06:38:03.090Z,19.67
2023-05-27T06:39:06.094Z,19.66
2023-05-27T06:40:09.381Z,19.70
2023-05-27T06:41:12.316Z,19.60
2023-05-27T06:42:15.977Z,19.76
2023-05-27T06:43:19.038Z,19.64
2023-05-27T06:44:21.886Z,19.77
2023-05-27T06:45:24.845Z,19.78
2023-05-27T06:46:27.892Z,19.91
2023-05-27T06:47:31.053Z,19.84
2023-05-27T06:48:33.924Z,20.11
2023-05-27T06:49:36.882Z,20.14
2023-05-27T06:50:39.721Z,20.14
2023-05-27T06:51:42.799Z,20.17
2023-05-27T06:52:45.697Z,20.24
2023-05-27T06:53:48.429Z,20.19
2023-05-27T06:54:51.334Z,20.23
2023-05-27T06:55:54.171Z,20.30
2023-05-27T06:56:57.075Z,20.30
2023-05-27T06:57:59.932Z,20.35
2023-05-27T06:59:03.143Z,20.27
2023-05-27T07:00:07.290Z,20.48
2023-05-27T07:01:10.733Z,20.64
2023-05-27T07:02:13.721Z,20.65
2023-05-27T07:03:16.701Z,20.63
2023-05-27T07:04:19.627Z,20.72
2023-05-27T07:05:22.614Z,20.63
2023-05-27T07:06:25.698Z,20.60
2023-05-27T07:07:28.623Z,20.54
2023-05-27T07:08:31.588Z,20.61
2023-05-27T07:09:34.572Z,20.61
2023-05-27T07:10:37.687Z,20.31
2023-05-27T07:11:40.951Z,20.36
2023-05-27T07:12:43.791Z,20.42
2023-05-27T07:13:46.681Z,20.53
2023-05-27T07:14:49.633Z,20.55
2023-05-27T07:15:52.548Z,20.53
2023-05-27T07:16:55.433Z,20.40
2023-05-27T07:17:58.341Z,20.56
2023-05-27T07:19:01.289Z,20.51
2023-05-27T07:20:04.486Z,20.28
2023-05-27T07:21:07.617Z,20.03
2023-05-27T07:22:10.475Z,20.14
2023-05-27T07:23:13.401Z,20.13
2023-05-27T07:24:16.230Z,20.08
2023-05-27T07:25:19.094Z,20.34
2023-05-27T07:26:21.876Z,20.25
2023-05-27T07:27:24.872Z,20.22
2023-05-27T07:28:27.924Z,20.59
2023-05-27T07:29:30.755Z,20.81
2023-05-27T07:30:33.874Z,20.92
2023-05-27T07:31:36.766Z,21.09
2023-05-27T07:32:40.260Z,21.21
2023-05-27T07:33:43.425Z,21.41
2023-05-27T07:34:46.300Z,21.46
2023-05-27T07:35:49.266Z,21.57
2023-05-27T07:36:52.141Z,21.53
2023-05-27T07:37:55.261Z,21.61
2023-05-27T07:38:58.070Z,21.74
2023-05-27T07:40:00.995Z,21.86
2023-05-27T07:41:03.943Z,22.20
2023-05-27T07:42:06.933Z,22.24
2023-05-27T07:43:09.865Z,22.51
2023-05-27T07:44:12.662Z,22.58
2023-05-27T07:45:15.599Z,22.36
2023-05-27T07:46:18.422Z,22.15
2023-05-27T07:47:21.738Z,22.19
2023-05-27T07:48:24.584Z,22.03
2023-05-27T07:49:27.565Z,22.18
2023-05-27T07:50:30.434Z,21.90
2023-05-27T07:51:33.390Z,22.02
2023-05-27T07:52:36.349Z,21.92
2023-05-27T07:53:39.204Z,21.89
2023-05-27T07:54:51.151Z,21.83
2023-05-27T07:55:57.407Z,21.81
2023-05-27T07:57:00.256Z,21.94
2023-05-27T07:58:03.087Z,22.00
2023-05-27T07:59:06.368Z,22.12
2023-05-27T08:00:09.676Z,22.15
2023-05-27T08:01:12.591Z,22.35
2023-05-27T08:02:15.612Z,22.38
2023-05-27T08:03:18.546Z,22.45
2023-05-27T08:04:25.546Z,22.41
2023-05-27T08:05:29.282Z,22.55
2023-05-27T08:06:32.171Z,22.69
2023-05-27T08:07:35.107Z,22.48
2023-05-27T08:08:37.952Z,22.45
2023-05-27T08:09:40.892Z,22.60
2023-05-27T08:10:45.606Z,22.35
2023-05-27T08:11:48.492Z,22.38
2023-05-27T08:12:51.515Z,22.45
2023-05-27T08:13:54.357Z,22.64
2023-05-27T08:14:57.265Z,22.43
2023-05-27T08:15:59.998Z,22.47
2023-05-27T08:17:03.035Z,22.28
2023-05-27T08:18:06.296Z,22.39
2023-05-27T08:19:09.240Z,22.48
2023-05-27T08:20:12.758Z,22.59
2023-05-27T08:21:15.649Z,22.57
2023-05-27T08:22:18.550Z,22.50
2023-05-27T08:23:21.366Z,22.79
2023-05-27T08:24:28.655Z,23.11
2023-05-27T08:25:31.790Z,23.43
2023-05-27T08:26:34.668Z,23.29
2023-05-27T08:28:03.051Z,23.73
2023-05-27T08:29:06.814Z,24.17
2023-05-27T08:30:09.992Z,24.58
2023-05-27T08:31:13.283Z,24.83
2023-05-27T08:32:16.368Z,25.01
2023-05-27T08:33:19.370Z,25.08
2023-05-27T08:34:22.149Z,25.12
2023-05-27T08:35:25.332Z,25.33
2023-05-27T08:36:28.162Z,25.24
2023-05-27T08:37:31.410Z,25.58
2023-05-27T08:38:34.270Z,25.63
2023-05-27T08:39:37.172Z,25.72
2023-05-27T08:40:40.051Z,25.62
2023-05-27T08:41:43.027Z,25.73
2023-05-27T08:42:47.130Z,25.20
2023-05-27T08:43:50.619Z,25.41
2023-05-27T08:44:53.526Z,25.84
2023-05-27T08:45:57.816Z,26.18
2023-05-27T08:47:01.270Z,26.07
2023-05-27T08:48:04.451Z,26.08
2023-05-27T08:49:08.894Z,26.25
2023-05-27T08:50:12.131Z,26.14
2023-05-27T08:51:19.991Z,26.24
2023-05-27T08:52:24.919Z,26.33
2023-05-27T08:53:27.947Z,25.99
2023-05-27T08:54:32.069Z,26.13
2023-05-27T08:55:35.484Z,26.21
2023-05-27T08:56:40.736Z,26.33
2023-05-27T08:57:47.681Z,26.33
2023-05-27T08:58:52.268Z,26.33
2023-05-27T08:59:55.130Z,26.63
2023-05-27T09:00:58.445Z,27.05
2023-05-27T09:02:02.082Z,27.08
2023-05-27T09:03:05.320Z,27.20
2023-05-27T09:04:08.277Z,27.15
2023-05-27T09:05:12.312Z,27.12
2023-05-27T09:06:15.578Z,27.39
2023-05-27T09:07:21.414Z,27.60
2023-05-27T09:08:28.090Z,27.14
2023-05-27T09:09:35.936Z,27.54
2023-05-27T09:10:40.040Z,27.77
2023-05-27T09:11:44.051Z,27.93
2023-05-27T09:12:47.270Z,28.04
2023-05-27T09:13:50.074Z,27.82
2023-05-27T09:14:53.860Z,27.93
2023-05-27T09:16:04.974Z,28.11
2023-05-27T09:17:09.756Z,28.31
2023-05-27T09:18:16.529Z,28.02
2023-05-27T09:19:20.324Z,27.50
2023-05-27T09:20:27.834Z,26.91
2023-05-27T09:21:31.601Z,26.77
2023-05-27T09:22:34.576Z,26.73
2023-05-27T09:23:41.370Z,27.24
2023-05-27T09:24:44.158Z,27.29
2023-05-27T09:25:47.520Z,26.71
2023-05-27T09:26:53.186Z,26.63
2023-05-27T09:27:57.089Z,25.95
2023-05-27T09:29:04.690Z,25.94
2023-05-27T09:30:09.324Z,25.67
2023-05-27T09:31:12.757Z,25.41
2023-05-27T09:32:28.780Z,25.45
2023-05-27T09:33:33.969Z,25.33
2023-05-27T09:34:40.606Z,25.53
2023-05-27T09:35:44.555Z,25.31
2023-05-27T09:36:49.483Z,24.90
2023-05-27T09:37:52.452Z,24.54
2023-05-27T09:38:55.284Z,24.44
2023-05-27T09:39:58.259Z,24.53
2023-05-27T09:41:02.441Z,24.75
2023-05-27T09:42:05.556Z,24.68
2023-05-27T09:43:08.982Z,24.80
2023-05-27T09:44:12.062Z,24.82
2023-05-27T09:45:19.917Z,24.82
2023-05-27T09:46:24.437Z,24.71
2023-05-27T09:47:27.595Z,24.84
2023-05-27T09:48:32.888Z,24.71
2023-05-27T09:49:38.974Z,24.28
2023-05-27T09:50:43.106Z,24.50
2023-05-27T09:51:48.492Z,24.56
2023-05-27T09:53:59.257Z,24.55
2023-05-27T09:55:03.201Z,24.15
2023-05-27T09:56:06.172Z,24.15
2023-05-27T09:57:09.617Z,24.31
2023-05-27T09:58:13.485Z,24.25
2023-05-27T09:59:16.673Z,24.38
2023-05-27T10:00:20.881Z,24.65
2023-05-27T10:01:30.389Z,24.75
2023-05-27T10:02:34.843Z,24.78
2023-05-27T10:03:39.511Z,24.85
2023-05-27T10:04:42.479Z,24.76
2023-05-27T10:05:48.882Z,24.79
2023-05-27T10:06:52.677Z,24.71
2023-05-27T10:09:19.026Z,24.91
2023-05-27T10:10:22.410Z,25.12
2023-05-27T10:11:33.239Z,25.37
2023-05-27T10:12:38.110Z,25.47
2023-05-27T10:13:41.680Z,25.62
2023-05-27T10:14:47.599Z,25.36
2023-05-27T10:15:53.630Z,25.14
2023-05-27T10:16:58.071Z,25.02
2023-05-27T10:18:10.888Z,25.35
2023-05-27T10:19:13.748Z,25.63
2023-05-27T10:20:33.176Z,25.97
2023-05-27T10:21:45.150Z,26.51
2023-05-27T10:22:48.016Z,26.88
2023-05-27T10:24:01.545Z,27.20
2023-05-27T10:25:14.574Z,26.87
2023-05-27T10:26:17.480Z,26.67
2023-05-27T10:27:22.569Z,26.29
2023-05-27T10:28:30.235Z,26.60
2023-05-27T10:29:40.193Z,26.59
2023-05-27T10:30:47.799Z,26.35
2023-05-27T10:31:54.286Z,25.99
2023-05-27T10:32:57.495Z,25.43
2023-05-27T10:34:00.370Z,25.59
2023-05-27T10:35:03.297Z,25.30
2023-05-27T10:36:11.663Z,25.45
2023-05-27T10:37:22.400Z,25.51
2023-05-27T10:38:25.432Z,25.55
2023-05-27T10:39:29.891Z,25.90
2023-05-27T10:40:33.322Z,26.22
2023-05-27T10:41:44.008Z,26.06
2023-05-27T10:42:46.935Z,26.15
2023-05-27T10:43:58.212Z,26.31
2023-05-27T10:45:10.468Z,26.53
2023-05-27T10:46:14.794Z,26.63
2023-05-27T10:47:17.924Z,26.36
2023-05-27T10:48:21.584Z,26.43
2023-05-27T10:49:26.780Z,26.53
2023-05-27T10:50:36.149Z,26.71
2023-05-27T10:51:40.063Z,27.17
2023-05-27T10:52:43.466Z,27.37
2023-05-27T10:53:50.531Z,27.48
2023-05-27T10:55:03.125Z,27.63
2023-05-27T10:56:06.487Z,27.83
2023-05-27T10:57:09.738Z,27.77
2023-05-27T10:58:13.296Z,27.71
2023-05-27T10:59:24.088Z,27.88
2023-05-27T11:00:28.634Z,28.32
2023-05-27T11:01:34.468Z,28.56
2023-05-27T11:02:40.485Z,28.41
2023-05-27T11:03:47.555Z,27.78
2023-05-27T11:04:50.865Z,27.59
2023-05-27T11:06:07.047Z,27.19
2023-05-27T11:07:10.233Z,26.97
2023-05-27T11:08:14.289Z,26.74
2023-05-27T11:09:17.118Z,26.38
2023-05-27T11:10:20.040Z,26.27
2023-05-27T11:11:24.208Z,25.60
2023-05-27T11:12:27.459Z,25.84
2023-05-27T11:13:37.633Z,26.25
2023-05-27T11:14:40.441Z,26.25
2023-05-27T11:15:43.370Z,26.53
2023-05-27T11:16:52.941Z,26.75
2023-05-27T11:18:02.172Z,27.30
2023-05-27T11:19:05.101Z,27.81
2023-05-27T11:20:09.324Z,27.74
2023-05-27T11:21:13.452Z,27.58
2023-05-27T11:22:18.321Z,27.64
2023-05-27T11:23:22.729Z,27.97
2023-05-27T11:24:25.621Z,28.52
2023-05-27T11:25:28.534Z,29.11
2023-05-27T11:26:31.438Z,29.26
2023-05-27T11:27:43.241Z,29.42
2023-05-27T11:28:51.893Z,29.47
2023-05-27T11:29:54.690Z,29.76
2023-05-27T11:31:05.082Z,29.83
2023-05-27T11:32:09.475Z,29.56
2023-05-27T11:33:27.955Z,29.87
2023-05-27T11:34:37.100Z,29.36
2023-05-27T11:35:39.980Z,29.24
2023-05-27T11:36:46.734Z,28.89
2023-05-27T11:37:54.258Z,29.14
2023-05-27T11:38:57.076Z,28.09
2023-05-27T11:40:00.075Z,28.85
2023-05-27T11:41:09.801Z,29.56
2023-05-27T11:42:13.358Z,29.54
2023-05-27T11:43:20.177Z,29.43
2023-05-27T11:44:28.401Z,29.76
2023-05-27T11:45:37.348Z,29.25
2023-05-27T11:46:43.719Z,28.50
2023-05-27T11:47:52.610Z,28.21
2023-05-27T11:48:55.998Z,27.84
2023-05-27T11:49:58.827Z,28.36
2023-05-27T11:51:01.814Z,28.78
2023-05-27T11:52:05.305Z,29.18
2023-05-27T11:53:08.428Z,29.40
2023-05-27T11:54:32.725Z,29.61
2023-05-27T11:55:36.767Z,29.11
2023-05-27T11:56:39.735Z,29.52
2023-05-27T11:57:42.605Z,29.34
2023-05-27T11:58:45.468Z,28.74
2023-05-27T11:59:48.331Z,28.91
2023-05-27T12:00:52.023Z,29.28
2023-05-27T12:01:55.374Z,29.40
2023-05-27T12:02:58.435Z,29.67
2023-05-27T12:04:01.307Z,29.48
2023-05-27T12:05:04.500Z,29.68
2023-05-27T12:06:07.817Z,29.28
2023-05-27T12:07:19.932Z,29.15
2023-05-27T12:08:24.484Z,28.98
2023-05-27T12:09:28.462Z,29.21
2023-05-27T12:10:31.455Z,29.51
2023-05-27T12:11:34.532Z,29.54
2023-05-27T12:12:39.583Z,29.64
2023-05-27T12:13:42.509Z,29.96
2023-05-27T12:14:45.374Z,29.50
2023-05-27T12:15:52.164Z,29.68
2023-05-27T12:16:55.371Z,29.55
2023-05-27T12:17:58.456Z,29.81
2023-05-27T12:19:01.710Z,29.77
2023-05-27T12:20:07.570Z,29.68
2023-05-27T12:21:10.598Z,29.89
2023-05-27T12:22:13.438Z,29.49
2023-05-27T12:23:16.325Z,29.34
2023-05-27T12:24:20.991Z,28.70
2023-05-27T12:25:23.842Z,28.62
2023-05-27T12:26:27.161Z,28.60
2023-05-27T12:27:30.055Z,28.17
2023-05-27T12:28:32.885Z,27.39
2023-05-27T12:29:36.176Z,27.00
2023-05-27T12:30:39.062Z,26.58
2023-05-27T12:31:42.113Z,26.38
2023-05-27T12:32:45.632Z,26.32
2023-05-27T12:33:48.801Z,26.41
2023-05-27T12:34:51.598Z,26.73
2023-05-27T12:35:54.488Z,26.67
2023-05-27T12:36:57.352Z,26.84
2023-05-27T12:38:00.398Z,26.99
2023-05-27T12:39:03.248Z,26.76
2023-05-27T12:40:06.888Z,26.55
2023-05-27T12:41:09.829Z,26.25
2023-05-27T12:42:12.766Z,25.74
2023-05-27T12:43:16.404Z,25.59
2023-05-27T12:44:20.019Z,25.52
2023-05-27T12:45:24.381Z,25.54
2023-05-27T12:46:27.421Z,25.41
2023-05-27T12:47:30.941Z,25.41
2023-05-27T12:48:33.941Z,25.26
2023-05-27T12:49:38.300Z,25.20
2023-05-27T12:50:41.775Z,24.91
2023-05-27T12:51:44.787Z,25.15
2023-05-27T12:52:47.804Z,25.18
2023-05-27T12:53:50.712Z,24.93
2023-05-27T12:54:53.556Z,24.70
2023-05-27T12:55:56.463Z,24.95
2023-05-27T12:56:59.412Z,25.02
2023-05-27T12:58:02.565Z,25.05
2023-05-27T12:59:07.639Z,24.73
2023-05-27T13:00:11.411Z,24.83
2023-05-27T13:01:14.633Z,24.83
2023-05-27T13:02:17.591Z,25.19
2023-05-27T13:03:21.000Z,25.24
2023-05-27T13:04:23.984Z,25.08
2023-05-27T13:05:26.866Z,25.15
2023-05-27T13:06:29.743Z,25.15
2023-05-27T13:07:32.619Z,24.78
2023-05-27T13:08:35.557Z,24.65
2023-05-27T13:09:41.986Z,24.62
2023-05-27T13:10:44.917Z,24.37
2023-05-27T13:11:49.216Z,24.54
2023-05-27T13:12:52.826Z,24.57
2023-05-27T13:13:56.105Z,24.43
2023-05-27T13:14:59.722Z,24.33
2023-05-27T13:16:02.841Z,23.83
2023-05-27T13:17:07.559Z,24.12
2023-05-27T13:18:11.491Z,24.02
2023-05-27T13:19:14.401Z,24.00
2023-05-27T13:20:17.778Z,24.07
2023-05-27T13:21:20.891Z,24.10
2023-05-27T13:22:24.930Z,24.30
2023-05-27T13:23:30.304Z,24.01
2023-05-27T13:24:33.248Z,23.98
2023-05-27T13:25:36.072Z,23.84
2023-05-27T13:26:38.959Z,23.94
2023-05-27T13:27:43.649Z,24.07
2023-05-27T13:28:46.597Z,24.38
2023-05-27T13:29:49.564Z,24.40
2023-05-27T13:30:53.117Z,24.40
2023-05-27T13:31:57.156Z,24.38
2023-05-27T13:33:43.470Z,24.79
2023-05-27T13:34:47.379Z,24.79
2023-05-27T13:35:50.477Z,24.08
2023-05-27T13:36:53.476Z,24.02
2023-05-27T13:37:56.835Z,24.08
2023-05-27T13:38:59.734Z,24.34
2023-05-27T13:40:03.217Z,24.64
2023-05-27T13:41:07.104Z,24.76
2023-05-27T13:42:11.591Z,24.68
2023-05-27T13:43:14.615Z,24.70
2023-05-27T13:44:17.637Z,24.89
2023-05-27T13:45:20.706Z,24.88
2023-05-27T13:46:23.585Z,24.83
2023-05-27T13:47:26.822Z,25.17
2023-05-27T13:48:29.722Z,25.37
2023-05-27T13:49:32.684Z,25.48